^^
Saratoga-Weather Station Historical Data
Daily Summary for June 8, 2021 Units:  English    Metric   Both
Daily Weekly Monthly Yearly Custom
  High: Low: Average:
Temperature: 68 °F 58.3 °F 62.8 °F
Dew Point: 61.9 °F 55.2 °F 58.3 °F
Humidity: 93% 72% 86%
Wind Speed: 10.1mph 0mph 0.9mph
Wind Gust: 13mph - -
Wind- - SSW
Pressure: 30.1 in 30 in -
Precipitation: 0.12 in    
Historical Graphs
 
 
Tabular Data for June 8, 2021
Time Temperature Dew Point Pressure Wind Wind Speed Wind Gust Humidity Rainfall Rate (Hourly) solar
00:01 63.9 °F 57.6 °F 30 in Calm     80% 0 in 0 W/m2
00:06 63.7 °F 57.4 °F 30.1 in Calm     80% 0 in 0 W/m2
00:11 63.7 °F 57.4 °F 30.1 in Calm     80% 0 in 0 W/m2
00:16 63.7 °F 57.4 °F 30.1 in Calm     80% 0 in 0 W/m2
00:21 63.7 °F 57.4 °F 30.1 in Calm     80% 0 in 0 W/m2
00:26 63.7 °F 57.4 °F 30.1 in Calm     80% 0 in 0 W/m2
00:31 63.7 °F 57.7 °F 30.1 in Calm     81% 0 in 0 W/m2
00:36 63.5 °F 57.6 °F 30.1 in Calm     81% 0 in 0 W/m2
00:41 63.3 °F 57.4 °F 30.1 in Calm     81% 0 in 0 W/m2
00:46 63.1 °F 57.2 °F 30.1 in Calm     81% 0 in 0 W/m2
00:51 63.1 °F 57.2 °F 30.1 in Calm     81% 0 in 0 W/m2
00:56 63.1 °F 57.2 °F 30.1 in Calm     81% 0 in 0 W/m2
01:01 63.1 °F 57.6 °F 30.1 in Calm     82% 0 in 0 W/m2
01:06 63.1 °F 57.6 °F 30.1 in Calm     82% 0 in 0 W/m2
01:11 63.1 °F 57.6 °F 30.1 in Calm     82% 0 in 0 W/m2
01:16 63.1 °F 57.6 °F 30.1 in Calm     82% 0 in 0 W/m2
01:21 63 °F 57.7 °F 30.1 in Calm   1 mph 83% 0 in 0 W/m2
01:26 63 °F 57.7 °F 30.1 in Calm   1 mph 83% 0 in 0 W/m2
01:31 62.8 °F 57.6 °F 30.1 in Calm     83% 0 in 0 W/m2
01:37 62.6 °F 57.4 °F 30.1 in Calm   1 mph 83% 0 in 0 W/m2
01:42 62.4 °F 57.6 °F 30.1 in WNW 0.9 mph 2 mph 84% 0 in 0 W/m2
01:47 62.1 °F 57.2 °F 30.1 in Calm   1 mph 84% 0 in 0 W/m2
01:52 61.9 °F 57 °F 30.1 in Calm   2 mph 84% 0 in 0 W/m2
01:57 61.7 °F 57.2 °F 30.1 in Calm   1 mph 85% 0 in 0 W/m2
02:02 61.5 °F 57 °F 30 in WNW 0.9 mph 2 mph 85% 0 in 0 W/m2
02:07 61.2 °F 56.7 °F 30 in Calm     85% 0 in 0 W/m2
02:12 61 °F 56.8 °F 30 in Calm     86% 0 in 0 W/m2
02:17 61 °F 56.8 °F 30.1 in Calm     86% 0 in 0 W/m2
02:22 61 °F 56.8 °F 30 in SE 0.9 mph 2 mph 86% 0 in 0 W/m2
02:27 61 °F 56.8 °F 30 in Calm   1 mph 86% 0 in 0 W/m2
02:32 61 °F 56.8 °F 30.1 in Calm     86% 0 in 0 W/m2
02:37 61 °F 56.8 °F 30.1 in Calm     86% 0 in 0 W/m2
02:42 61 °F 56.8 °F 30.1 in Calm     86% 0 in 0 W/m2
02:47 61 °F 56.8 °F 30.1 in Calm     86% 0 in 0 W/m2
02:52 61 °F 56.8 °F 30.1 in Calm     86% 0 in 0 W/m2
02:57 61 °F 56.5 °F 30.1 in Calm     85% 0 in 0 W/m2
03:02 60.8 °F 56.7 °F 30.1 in Calm     86% 0 in 0 W/m2
03:07 60.6 °F 56.5 °F 30.1 in Calm     86% 0 in 0 W/m2
03:12 60.6 °F 56.5 °F 30.1 in SE 0.9 mph 2 mph 86% 0 in 0 W/m2
03:17 60.6 °F 56.5 °F 30.1 in Calm     86% 0 in 0 W/m2
03:22 60.6 °F 56.5 °F 30.1 in Calm   2 mph 86% 0 in 0 W/m2
03:27 60.6 °F 56.5 °F 30.1 in Calm     86% 0 in 0 W/m2
03:32 60.4 °F 56.5 °F 30.1 in Calm     87% 0 in 0 W/m2
03:37 60.4 °F 56.5 °F 30.1 in Calm     87% 0 in 0 W/m2
03:42 60.4 °F 56.5 °F 30.1 in Calm     87% 0 in 0 W/m2
03:47 60.4 °F 56.5 °F 30.1 in Calm   1 mph 87% 0 in 0 W/m2
03:52 60.4 °F 56.5 °F 30.1 in Calm     87% 0 in 0 W/m2
03:57 60.3 °F 56.3 °F 30.1 in Calm   1 mph 87% 0 in 0 W/m2
04:02 60.1 °F 56.1 °F 30.1 in Calm     87% 0 in 0 W/m2
04:07 60.1 °F 56.1 °F 30.1 in Calm     87% 0 in 0 W/m2
04:12 60.1 °F 56.1 °F 30.1 in Calm     87% 0 in 0 W/m2
04:17 59.7 °F 55.8 °F 30 in Calm     87% 0 in 0 W/m2
04:22 59.5 °F 55.6 °F 30.1 in Calm     87% 0 in 0 W/m2
04:27 59.5 °F 55.6 °F 30 in Calm     87% 0 in 0 W/m2
04:32 59.4 °F 55.4 °F 30 in Calm     87% 0 in 0 W/m2
04:37 59.4 °F 55.4 °F 30.1 in Calm     87% 0 in 0 W/m2
04:42 59.2 °F 55.4 °F 30.1 in Calm     87% 0 in 0 W/m2
04:47 59.2 °F 55.6 °F 30.1 in Calm     88% 0 in 0 W/m2
04:52 59 °F 55.4 °F 30.1 in Calm     88% 0 in 0 W/m2
04:57 58.8 °F 55.2 °F 30.1 in Calm     88% 0 in 0 W/m2
05:02 58.8 °F 55.2 °F 30.1 in Calm     88% 0 in 0 W/m2
05:07 58.6 °F 55.4 °F 30.1 in Calm     89% 0 in 0 W/m2
05:12 58.6 °F 55.4 °F 30.1 in Calm     89% 0 in 0 W/m2
05:17 58.6 °F 55.4 °F 30.1 in Calm     89% 0 in 0 W/m2
05:22 58.6 °F 55.4 °F 30.1 in Calm     89% 0 in 0 W/m2
05:27 58.6 °F 55.4 °F 30 in Calm     89% 0 in 0 W/m2
05:32 58.6 °F 55.4 °F 30.1 in Calm     89% 0 in 0 W/m2
05:37 58.6 °F 55.8 °F 30.1 in Calm     90% 0 in 0 W/m2
05:42 58.6 °F 55.8 °F 30.1 in Calm     90% 0 in 0 W/m2
05:47 58.8 °F 55.6 °F 30.1 in Calm     89% 0 in 0 W/m2
05:52 59.2 °F 56.3 °F 30.1 in ESE 2 mph 4 mph 90% 0 in 0 W/m2
05:57 59.4 °F 56.1 °F 30.1 in ESE 2 mph 2 mph 89% 0 in 0 W/m2
06:02 59.5 °F 56.3 °F 30.1 in Calm   4 mph 89% 0 in 5 W/m2
06:07 59.5 °F 55.9 °F 30.1 in ESE 0.9 mph 2 mph 88% 0 in 9 W/m2
06:12 59.5 °F 55.9 °F 30.1 in Calm     88% 0 in 12 W/m2
06:17 59.5 °F 55.9 °F 30.1 in Calm   2 mph 88% 0 in 16 W/m2
06:22 59.5 °F 55.9 °F 30.1 in Calm     88% 0 in 21 W/m2
06:27 59.7 °F 56.5 °F 30.1 in Calm     89% 0 in 28 W/m2
06:32 59.7 °F 56.5 °F 30.1 in Calm     89% 0 in 35 W/m2
06:37 59.7 °F 56.5 °F 30.1 in ESE 0.9 mph 1 mph 89% 0 in 44 W/m2
06:42 59.9 °F 56.7 °F 30.1 in Calm     89% 0 in 49 W/m2
06:47 60.1 °F 56.5 °F 30.1 in Calm     88% 0 in 56 W/m2
06:52 60.3 °F 57 °F 30.1 in Calm     89% 0 in 65 W/m2
06:57 60.4 °F 57.2 °F 30.1 in Calm     89% 0 in 62 W/m2
07:02 60.4 °F 56.8 °F 30.1 in Calm     88% 0 in 72 W/m2
07:07 60.6 °F 57 °F 30.1 in Calm     88% 0 in 79 W/m2
07:12 61.2 °F 57.6 °F 30.1 in Calm   2 mph 88% 0 in 77 W/m2
07:17 61.3 °F 57.7 °F 30.1 in Calm     88% 0 in 67 W/m2
07:22 61.5 °F 57.9 °F 30.1 in Calm   2 mph 88% 0 in 63 W/m2
07:27 61.5 °F 57.6 °F 30.1 in Calm     87% 0 in 74 W/m2
07:32 61.7 °F 57.7 °F 30.1 in Calm     87% 0 in 81 W/m2
07:37 61.9 °F 57.9 °F 30.1 in Calm     87% 0 in 81 W/m2
07:42 62.1 °F 58.1 °F 30.1 in Calm   1 mph 87% 0 in 81 W/m2
07:47 62.2 °F 58.3 °F 30.1 in Calm     87% 0 in 74 W/m2
07:52 62.2 °F 57.9 °F 30.1 in Calm   1 mph 86% 0 in 62 W/m2
07:57 62.2 °F 57.9 °F 30.1 in Calm     86% 0 in 47 W/m2
08:02 62.4 °F 58.1 °F 30.1 in Calm   1 mph 86% 0 in 47 W/m2
08:07 62.6 °F 58.3 °F 30.1 in Calm     86% 0 in 46 W/m2
08:12 62.6 °F 58.6 °F 30.1 in East 0.9 mph 1 mph 87% 0 in 44 W/m2
08:17 62.6 °F 58.1 °F 30.1 in West 2 mph 2 mph 85% 0 in 51 W/m2
08:22 62.8 °F 57.6 °F 30.1 in WNW 2 mph 6 mph 83% 0 in 56 W/m2
08:27 62.8 °F 57.2 °F 30.1 in West 4 mph 7 mph 82% 0 in 65 W/m2
08:32 62.8 °F 57.2 °F 30.1 in WNW 2 mph 6 mph 82% 0 in 86 W/m2
08:37 62.8 °F 57.2 °F 30.1 in WNW 2.9 mph 4 mph 82% 0 in 113 W/m2
08:42 63 °F 57.4 °F 30.1 in West 2.9 mph 3 mph 82% 0 in 156 W/m2
08:47 63.1 °F 57.6 °F 30.1 in West 2.9 mph 4 mph 82% 0 in 190 W/m2
08:53 63.3 °F 57.7 °F 30.1 in WSW 2 mph 2 mph 82% 0 in 183 W/m2
08:58 63.5 °F 57.9 °F 30.1 in WNW 0.9 mph 3 mph 82% 0 in 142 W/m2
09:03 63.7 °F 57.7 °F 30.1 in WNW 4 mph 4 mph 81% 0 in 134 W/m2
09:08 63.7 °F 57.7 °F 30.1 in WNW 2 mph 4 mph 81% 0 in 132 W/m2
09:13 63.7 °F 57.7 °F 30.1 in West 2 mph 7 mph 81% 0 in 130 W/m2
09:18 63.7 °F 57.7 °F 30.1 in West 0.9 mph 4 mph 81% 0 in 137 W/m2
09:23 63.9 °F 57.6 °F 30.1 in West 0.9 mph 7 mph 80% 0 in 134 W/m2
09:28 63.7 °F 57.7 °F 30.1 in WSW 2.9 mph 6 mph 81% 0 in 134 W/m2
09:33 63.7 °F 58.1 °F 30.1 in WNW 0.9 mph 7 mph 82% 0 in 127 W/m2
09:38 63.5 °F 57.9 °F 30.1 in West 10.1 mph 13 mph 82% 0 in 125 W/m2
09:43 63.3 °F 57.7 °F 30.1 in West 2 mph 6 mph 82% 0 in 116 W/m2
09:48 63.3 °F 57.7 °F 30.1 in SW 4.9 mph 13 mph 82% 0 in 97 W/m2
09:53 63.3 °F 57.7 °F 30.1 in West 4 mph 4 mph 82% 0 in 104 W/m2
09:58 63.5 °F 57.9 °F 30.1 in WNW 2 mph 3 mph 82% 0 in 98 W/m2
10:03 63.5 °F 57.9 °F 30.1 in NW 2.9 mph 5 mph 82% 0 in 90 W/m2
10:08 63.5 °F 57.9 °F 30.1 in West 6.9 mph 7 mph 82% 0 in 84 W/m2
10:13 63.5 °F 57.9 °F 30.1 in WNW 2.9 mph 4 mph 82% 0 in 86 W/m2
10:18 63.5 °F 57.9 °F 30.1 in West 2 mph 6 mph 82% 0 in 88 W/m2
10:23 63.5 °F 57.9 °F 30.1 in WNW 2 mph 4 mph 82% 0 in 90 W/m2
10:28 63.5 °F 57.9 °F 30.1 in West 2.9 mph 4 mph 82% 0 in 88 W/m2
10:33 63.3 °F 58.1 °F 30.1 in WSW 2 mph 4 mph 83% 0 in 83 W/m2
10:38 63.3 °F 58.1 °F 30.1 in WNW 2.9 mph 5 mph 83% 0 in 83 W/m2
10:43 63.3 °F 58.1 °F 30.1 in NW 2 mph 3 mph 83% 0 in 83 W/m2
10:48 63.3 °F 58.5 °F 30.1 in West 0.9 mph 5 mph 84% 0 in 77 W/m2
10:53 63.3 °F 58.8 °F 30.1 in WNW 2 mph 2 mph 85% 0 in 76 W/m2
10:58 63.3 °F 58.8 °F 30.1 in West 2.9 mph 6 mph 85% 0 in 81 W/m2
11:03 63.1 °F 58.8 °F 30.1 in WSW 2.9 mph 3 mph 86% 0 in 90 W/m2
11:08 63.1 °F 58.8 °F 30.1 in West 2.9 mph 5 mph 86% 0 in 100 W/m2
11:13 63.1 °F 58.8 °F 30.1 in WSW 2 mph 3 mph 86% 0 in 127 W/m2
11:18 63.1 °F 59.2 °F 30.1 in WSW 2.9 mph 5 mph 87% 0 in 162 W/m2
11:23 63.1 °F 59.5 °F 30.1 in West 2 mph 3 mph 88% 0 in 153 W/m2
11:28 63.1 °F 59.2 °F 30.1 in SW 4 mph 4 mph 87% 0.01 in 188 W/m2
11:33 63.3 °F 59.7 °F 30.1 in West 2.9 mph 5 mph 88% 0.01 in 202 W/m2
11:38 63.3 °F 59.7 °F 30.1 in West 2 mph 4 mph 88% 0.01 in 227 W/m2
11:43 63.7 °F 60.1 °F 30.1 in WSW 2 mph 5 mph 88% 0.01 in 223 W/m2
11:48 63.9 °F 60.3 °F 30.1 in West 0.9 mph 4 mph 88% 0.01 in 260 W/m2
11:53 64.2 °F 59.9 °F 30.1 in NW 4 mph 4 mph 86% 0.01 in 248 W/m2
11:58 64.6 °F 59.9 °F 30.1 in WNW 2.9 mph 3 mph 85% 0.01 in 221 W/m2
12:03 64.8 °F 60.1 °F 30.1 in WNW 0.9 mph 2 mph 85% 0.01 in 202 W/m2
12:08 64.9 °F 60.3 °F 30.1 in West 2 mph 3 mph 85% 0.01 in 183 W/m2
12:13 65.1 °F 60.1 °F 30.1 in WSW 0.9 mph 3 mph 84% 0.01 in 151 W/m2
12:18 65.1 °F 60.4 °F 30.1 in West 2 mph 4 mph 85% 0.01 in 171 W/m2
12:23 65.1 °F 60.1 °F 30.1 in West 2 mph 3 mph 84% 0.01 in 258 W/m2
12:28 65.3 °F 60.1 °F 30.1 in Calm   4 mph 83% 0 in 278 W/m2
12:33 65.7 °F 60.4 °F 30.1 in Calm     83% 0 in 262 W/m2
12:38 65.8 °F 59.5 °F 30.1 in Calm     80% 0 in 239 W/m2
12:43 66 °F 59.4 °F 30.1 in Calm   1 mph 79% 0 in 269 W/m2
12:48 66.4 °F 60.1 °F 30.1 in Calm     80% 0 in 239 W/m2
12:53 66.7 °F 60.1 °F 30.1 in NW 0.9 mph 2 mph 79% 0 in 243 W/m2
12:58 66.9 °F 59.9 °F 30.1 in ESE 0.9 mph 4 mph 78% 0 in 260 W/m2
13:03 67.1 °F 60.1 °F 30.1 in ESE 2 mph 2 mph 78% 0 in 318 W/m2
13:08 67.3 °F 60.6 °F 30.1 in SE 2 mph 4 mph 79% 0 in 364 W/m2
13:13 67.5 °F 60.4 °F 30.1 in Calm   3 mph 78% 0 in 490 W/m2
13:18 67.8 °F 61 °F 30.1 in ESE 2 mph 3 mph 79% 0 in 438 W/m2
13:23 67.8 °F 61.7 °F 30.1 in East 2 mph 6 mph 81% 0 in 348 W/m2
13:28 67.8 °F 61.7 °F 30.1 in SE 0.9 mph 4 mph 81% 0 in 373 W/m2
13:33 67.8 °F 61.7 °F 30.1 in Calm   3 mph 81% 0 in 438 W/m2
13:38 67.8 °F 61.3 °F 30.1 in ENE 0.9 mph 4 mph 80% 0 in 323 W/m2
13:43 68 °F 61.9 °F 30.1 in Calm   2 mph 81% 0 in 394 W/m2
13:48 68 °F 61.5 °F 30.1 in Calm   2 mph 80% 0 in 301 W/m2
13:53 67.8 °F 61.7 °F 30.1 in East 0.9 mph 2 mph 81% 0 in 223 W/m2
13:58 67.6 °F 61 °F 30.1 in East 0.9 mph 2 mph 79% 0 in 179 W/m2
14:03 67.5 °F 61.3 °F 30.1 in ENE 2 mph 4 mph 81% 0 in 153 W/m2
14:08 67.3 °F 61.5 °F 30.1 in East 0.9 mph 6 mph 82% 0 in 141 W/m2
14:13 66.7 °F 61.3 °F 30.1 in Calm   2 mph 83% 0 in 135 W/m2
14:18 66.6 °F 61.2 °F 30.1 in South 0.9 mph 2 mph 83% 0 in 121 W/m2
14:23 66.4 °F 61 °F 30.1 in ESE 2 mph 3 mph 83% 0 in 93 W/m2
14:28 66 °F 60.6 °F 30.1 in SE 0.9 mph 2 mph 83% 0 in 83 W/m2
14:33 65.8 °F 60.8 °F 30.1 in ENE 0.9 mph 2 mph 84% 0 in 111 W/m2
14:38 65.7 °F 61 °F 30.1 in Calm   4 mph 85% 0 in 118 W/m2
14:43 65.7 °F 61.3 °F 30.1 in East 2 mph 2 mph 86% 0 in 98 W/m2
14:48 65.7 °F 61.7 °F 30.1 in Calm     87% 0.01 in 79 W/m2
14:53 65.3 °F 61.3 °F 30.1 in East 2 mph 3 mph 87% 0.01 in 77 W/m2
14:58 64.8 °F 60.8 °F 30.1 in NE 0.9 mph 2 mph 87% 0.01 in 88 W/m2
15:03 64.6 °F 61 °F 30.1 in Calm     88% 0.01 in 100 W/m2
15:08 64.2 °F 60.6 °F 30.1 in ENE 2 mph 3 mph 88% 0.02 in 120 W/m2
15:13 63.9 °F 60.6 °F 30.1 in ENE 0.9 mph 3 mph 89% 0.02 in 142 W/m2
15:18 63.7 °F 60.6 °F 30.1 in ENE 0.9 mph 2 mph 90% 0.04 in 135 W/m2
15:23 63.5 °F 60.8 °F 30.1 in East 2 mph 3 mph 91% 0.05 in 139 W/m2
15:28 63.3 °F 60.6 °F 30.1 in ESE 0.9 mph 2 mph 91% 0.06 in 142 W/m2
15:33 63.1 °F 60.4 °F 30.1 in Calm   2 mph 91% 0.06 in 169 W/m2
15:38 63.1 °F 60.4 °F 30.1 in East 0.9 mph 3 mph 91% 0.06 in 206 W/m2
15:43 62.8 °F 59.2 °F 30.1 in Calm   1 mph 88% 0.06 in 251 W/m2
15:48 63 °F 59.4 °F 30.1 in Calm   3 mph 88% 0.06 in 352 W/m2
15:53 63.1 °F 59.5 °F 30.1 in Calm     88% 0.06 in 369 W/m2
15:58 63.5 °F 59.5 °F 30.1 in ENE 0.9 mph 1 mph 87% 0.06 in 274 W/m2
16:03 63.9 °F 60.3 °F 30.1 in Calm     88% 0.06 in 229 W/m2
16:08 64 °F 60.1 °F 30.1 in Calm   1 mph 87% 0.06 in 221 W/m2
16:13 64.6 °F 61 °F 30.1 in Calm   1 mph 88% 0.05 in 234 W/m2
16:18 64.6 °F 60.3 °F 30.1 in Calm   1 mph 86% 0.03 in 221 W/m2
16:23 64.8 °F 60.8 °F 30.1 in SE 2 mph 2 mph 87% 0.02 in 199 W/m2
16:28 64.9 °F 60.6 °F 30.1 in Calm   2 mph 86% 0.02 in 188 W/m2
16:33 64.9 °F 60.6 °F 30.1 in NE 0.9 mph 1 mph 86% 0.01 in 186 W/m2
16:38 64.9 °F 60.6 °F 30.1 in NNE 0.9 mph 2 mph 86% 0.01 in 186 W/m2
16:43 64.9 °F 61 °F 30.1 in NNW 0.9 mph 2 mph 87% 0 in 218 W/m2
16:48 64.9 °F 61 °F 30.1 in East 0.9 mph 2 mph 87% 0 in 160 W/m2
16:53 64.9 °F 61 °F 30.1 in ENE 0.9 mph 1 mph 87% 0 in 158 W/m2
16:58 64.9 °F 60.6 °F 30.1 in ENE 0.9 mph 3 mph 86% 0 in 165 W/m2
17:03 64.9 °F 60.6 °F 30.1 in East 2 mph 3 mph 86% 0 in 200 W/m2
17:08 64.9 °F 60.6 °F 30.1 in ENE 0.9 mph 3 mph 86% 0 in 232 W/m2
17:13 64.9 °F 60.3 °F 30.1 in ESE 2 mph 3 mph 85% 0 in 316 W/m2
17:18 65.3 °F 61 °F 30.1 in East 0.9 mph 3 mph 86% 0 in 316 W/m2
17:23 65.5 °F 60.8 °F 30.1 in ENE 2.9 mph 4 mph 85% 0 in 274 W/m2
17:28 65.7 °F 60.6 °F 30.1 in Calm   3 mph 84% 0 in 278 W/m2
17:33 65.8 °F 60.8 °F 30.1 in ESE 2 mph 4 mph 84% 0 in 320 W/m2
17:38 66 °F 60.6 °F 30.1 in ENE 0.9 mph 3 mph 83% 0 in 360 W/m2
17:43 66.6 °F 61.5 °F 30.1 in ESE 0.9 mph 1 mph 84% 0 in 446 W/m2
17:48 66.9 °F 61.9 °F 30.1 in NNE 5 mph 5 mph 84% 0 in 306 W/m2
17:53 66.7 °F 60.1 °F 30.1 in North 2 mph 3 mph 79% 0 in 338 W/m2
17:58 66.9 °F 59.9 °F 30.1 in Calm   3 mph 78% 0 in 373 W/m2
18:03 66.9 °F 59.9 °F 30.1 in Calm   4 mph 78% 0 in 214 W/m2
18:08 66.7 °F 60.1 °F 30.1 in Calm   1 mph 79% 0 in 190 W/m2
18:13 66.6 °F 59.9 °F 30.1 in ESE 0.9 mph 2 mph 79% 0 in 178 W/m2
18:18 66.2 °F 60.3 °F 30.1 in ESE 2 mph 2 mph 81% 0 in 185 W/m2
18:23 66 °F 60.6 °F 30.1 in ESE 0.9 mph 2 mph 83% 0 in 227 W/m2
18:28 66 °F 60.4 °F 30.1 in ESE 0.9 mph 1 mph 82% 0 in 418 W/m2
18:33 66.4 °F 60.1 °F 30.1 in ENE 2 mph 3 mph 80% 0 in 374 W/m2
18:38 66.9 °F 59.9 °F 30.1 in SE 0.9 mph 2 mph 78% 0 in 388 W/m2
18:43 67.6 °F 61.2 °F 30.1 in South 0.9 mph 2 mph 80% 0 in 339 W/m2
18:48 67.6 °F 58.6 °F 30.1 in Calm   1 mph 73% 0 in 329 W/m2
18:53 67.8 °F 58.5 °F 30.1 in Calm   3 mph 72% 0 in 236 W/m2
18:58 68 °F 59.4 °F 30.1 in Calm   1 mph 74% 0 in 72 W/m2
19:03 67.3 °F 58.3 °F 30.1 in Calm   3 mph 73% 0 in 49 W/m2
19:08 66.4 °F 59 °F 30.1 in Calm   1 mph 77% 0 in 33 W/m2
19:13 65.7 °F 57.9 °F 30.1 in SSE 0.9 mph 2 mph 76% 0 in 16 W/m2
19:18 65.1 °F 58.1 °F 30.1 in Calm   1 mph 78% 0 in 11 W/m2
19:23 64.6 °F 58.3 °F 30.1 in WNW 4 mph 7 mph 80% 0 in 5 W/m2
19:28 64 °F 58.5 °F 30.1 in WNW 0.9 mph 4 mph 82% 0 in 5 W/m2
19:33 63.9 °F 58.3 °F 30.1 in NW 0.9 mph 7 mph 82% 0 in 7 W/m2
19:38 63.9 °F 58.6 °F 30.1 in Calm   1 mph 83% 0 in 9 W/m2
19:43 63.9 °F 58.6 °F 30.1 in NW 0.9 mph 3 mph 83% 0 in 9 W/m2
19:48 63.9 °F 59 °F 30.1 in SW 0.9 mph 3 mph 84% 0 in 12 W/m2
19:53 63.7 °F 59.4 °F 30.1 in Calm   1 mph 86% 0 in 16 W/m2
19:58 63.3 °F 59.4 °F 30.1 in Calm   3 mph 87% 0 in 21 W/m2
20:03 63.3 °F 59.7 °F 30.1 in Calm   2 mph 88% 0.01 in 23 W/m2
20:08 63.1 °F 59.9 °F 30.1 in Calm     89% 0.02 in 26 W/m2
20:13 63 °F 59.7 °F 30.1 in Calm   1 mph 89% 0.02 in 28 W/m2
20:18 62.8 °F 59.7 °F 30.1 in Calm     90% 0.02 in 28 W/m2
20:23 62.6 °F 59.9 °F 30.1 in Calm     91% 0.03 in 26 W/m2
20:28 62.2 °F 59.5 °F 30.1 in West 0.9 mph 2 mph 91% 0.03 in 23 W/m2
20:33 62.2 °F 59.9 °F 30.1 in West 2.9 mph 3 mph 92% 0.03 in 21 W/m2
20:38 61.9 °F 59.2 °F 30.1 in Calm   1 mph 91% 0.03 in 19 W/m2
20:43 61.9 °F 59.5 °F 30.1 in West 2 mph 2 mph 92% 0.03 in 19 W/m2
20:48 61.5 °F 58.8 °F 30.1 in Calm   1 mph 91% 0.03 in 19 W/m2
20:53 61.3 °F 59 °F 30.1 in Calm     92% 0.04 in 39 W/m2
20:58 61.3 °F 59 °F 30.1 in Calm     92% 0.04 in 25 W/m2
21:03 61.3 °F 59 °F 30.1 in West 0.9 mph 1 mph 92% 0.03 in 26 W/m2
21:08 61.3 °F 59 °F 30.1 in West 2 mph 2 mph 92% 0.02 in 32 W/m2
21:13 61.2 °F 59.2 °F 30.1 in Calm   2 mph 93% 0.02 in 28 W/m2
21:18 61.2 °F 59.2 °F 30.1 in West 0.9 mph 2 mph 93% 0.02 in 18 W/m2
21:23 61 °F 59 °F 30.1 in West 2 mph 2 mph 93% 0.01 in 12 W/m2
21:28 60.8 °F 58.8 °F 30.1 in WSW 0.9 mph 3 mph 93% 0.01 in 9 W/m2
21:33 60.4 °F 58.5 °F 30.1 in West 0.9 mph 3 mph 93% 0.01 in 7 W/m2
21:38 60.3 °F 57.9 °F 30.1 in Calm   1 mph 92% 0.01 in 5 W/m2
21:43 59.9 °F 57.6 °F 30.1 in Calm   3 mph 92% 0.01 in 0 W/m2
21:48 59.7 °F 57.4 °F 30.1 in West 0.9 mph 4 mph 92% 0.01 in 0 W/m2
21:53 59.5 °F 56.8 °F 30.1 in WSW 2.9 mph 5 mph 91% 0 in 0 W/m2
21:58 59.5 °F 56.8 °F 30.1 in SW 2.9 mph 6 mph 91% 0 in 0 W/m2
22:03 59.5 °F 56.7 °F 30.1 in WSW 4.9 mph 8 mph 90% 0 in 0 W/m2
22:08 59.7 °F 56.8 °F 30.1 in WNW 2.9 mph 8 mph 90% 0 in 0 W/m2
22:13 59.7 °F 56.8 °F 30.1 in WNW 2.9 mph 7 mph 90% 0 in 0 W/m2
22:18 59.7 °F 56.8 °F 30.1 in West 2 mph 5 mph 90% 0 in 0 W/m2
22:23 59.7 °F 56.8 °F 30.1 in West 2 mph 7 mph 90% 0 in 0 W/m2
22:28 59.7 °F 56.5 °F 30.1 in North 0.9 mph 4 mph 89% 0 in 0 W/m2
22:33 59.9 °F 56.7 °F 30.1 in ESE 0.9 mph 5 mph 89% 0 in 0 W/m2
22:38 60.1 °F 57.2 °F 30.1 in Calm     90% 0 in 0 W/m2
22:43 59.9 °F 57 °F 30.1 in Calm     90% 0 in 0 W/m2
22:48 59.7 °F 57 °F 30.1 in Calm   1 mph 91% 0 in 0 W/m2
22:53 59.5 °F 56.8 °F 30.1 in Calm   2 mph 91% 0 in 0 W/m2
22:58 59.5 °F 57.2 °F 30.1 in WNW 2 mph 3 mph 92% 0 in 0 W/m2
23:03 59.4 °F 57 °F 30.1 in Calm   3 mph 92% 0 in 0 W/m2
23:08 59.2 °F 56.8 °F 30.1 in WNW 0.9 mph 4 mph 92% 0 in 0 W/m2
23:13 59.2 °F 56.8 °F 30.1 in Calm   2 mph 92% 0 in 0 W/m2
23:18 59 °F 56.7 °F 30.1 in Calm   3 mph 92% 0 in 0 W/m2
23:23 58.8 °F 56.5 °F 30.1 in NW 0.9 mph 3 mph 92% 0 in 0 W/m2
23:28 58.8 °F 56.5 °F 30.1 in WNW 2 mph 2 mph 92% 0 in 0 W/m2
23:33 58.8 °F 56.5 °F 30.1 in West 0.9 mph 3 mph 92% 0 in 0 W/m2
23:38 58.6 °F 56.3 °F 30.1 in West 0.9 mph 2 mph 92% 0 in 0 W/m2
23:43 58.5 °F 56.1 °F 30.1 in Calm   3 mph 92% 0 in 0 W/m2
23:48 58.5 °F 56.5 °F 30.1 in Calm     93% 0 in 0 W/m2
23:53 58.5 °F 56.5 °F 30.1 in Calm   1 mph 93% 0 in 0 W/m2
23:58 58.3 °F 56.3 °F 30.1 in Calm     93% 0 in 0 W/m2
Juneau County Weather
Compliments of Weather Underground - 4 mb